createdAt,value
2022-08-22T00:02:35.071Z,64.56
2022-08-22T00:02:46.231Z,63.96
2022-08-22T00:02:57.376Z,69.02
2022-08-22T00:03:06.743Z,69.84
2022-08-22T00:03:16.002Z,67.70
2022-08-22T00:05:10.914Z,66.20
2022-08-22T00:07:51.996Z,64.69
2022-08-22T00:10:25.924Z,66.25
2022-08-22T00:13:34.125Z,64.33
2022-08-22T00:16:20.749Z,64.29
2022-08-22T00:19:04.027Z,64.17
2022-08-22T00:21:53.762Z,65.53
2022-08-22T00:24:26.968Z,65.80
2022-08-22T00:27:02.260Z,65.73
2022-08-22T00:29:35.841Z,65.59
2022-08-22T00:32:42.722Z,64.93
2022-08-22T00:35:31.767Z,65.68
2022-08-22T00:38:06.347Z,65.61
2022-08-22T00:41:01.967Z,65.64
2022-08-22T00:43:51.416Z,64.55
2022-08-22T00:46:37.527Z,65.60
2022-08-22T00:49:31.365Z,65.11
2022-08-22T00:52:16.339Z,64.50
2022-08-22T00:55:08.969Z,63.68
2022-08-22T00:58:12.696Z,62.78
2022-08-22T01:00:52.369Z,62.27
2022-08-22T01:03:44.817Z,62.41
2022-08-22T01:06:27.411Z,62.49
2022-08-22T01:09:16.151Z,62.19
2022-08-22T01:11:46.593Z,62.01
2022-08-22T01:14:34.548Z,61.68
2022-08-22T01:17:24.277Z,61.74
2022-08-22T01:20:07.287Z,61.88
2022-08-22T01:22:47.226Z,61.96
2022-08-22T01:25:58.076Z,62.11
2022-08-22T01:28:45.097Z,61.40
2022-08-22T01:31:41.674Z,63.12
2022-08-22T01:34:37.429Z,62.39
2022-08-22T01:37:17.720Z,61.88
2022-08-22T01:39:57.259Z,62.73
2022-08-22T01:42:24.672Z,61.92
2022-08-22T01:45:13.976Z,61.63
2022-08-22T01:47:55.686Z,61.82
2022-08-22T01:50:37.216Z,61.76
2022-08-22T01:53:25.214Z,62.11
2022-08-22T01:56:05.496Z,61.92
2022-08-22T01:58:36.666Z,61.75
2022-08-22T02:01:33.960Z,61.32
2022-08-22T02:04:28.180Z,61.27
2022-08-22T02:07:04.283Z,61.67
2022-08-22T02:10:00.433Z,63.07
2022-08-22T02:12:46.722Z,63.38
2022-08-22T02:15:39.067Z,62.50
2022-08-22T02:18:06.494Z,62.21
2022-08-22T02:21:03.506Z,62.48
2022-08-22T02:23:56.037Z,62.55
2022-08-22T02:26:47.014Z,62.25
2022-08-22T02:29:19.392Z,63.41
2022-08-22T02:31:53.152Z,61.51
2022-08-22T02:34:29.092Z,60.73
2022-08-22T02:37:10.078Z,60.95
2022-08-22T02:40:02.822Z,61.27
2022-08-22T02:42:41.133Z,60.52
2022-08-22T02:45:20.731Z,60.96
2022-08-22T02:48:02.053Z,60.77
2022-08-22T02:50:37.826Z,60.63
2022-08-22T02:53:14.772Z,61.84
2022-08-22T02:55:54.469Z,62.08
2022-08-22T02:58:43.196Z,61.75
2022-08-22T03:01:35.234Z,62.20
2022-08-22T03:04:24.803Z,62.70
2022-08-22T03:06:58.188Z,63.41
2022-08-22T03:09:30.807Z,62.52
2022-08-22T03:12:10.395Z,62.85
2022-08-22T03:14:45.831Z,62.72
2022-08-22T03:17:19.808Z,62.77
2022-08-22T03:20:06.032Z,62.40
2022-08-22T03:22:54.610Z,61.87
2022-08-22T03:25:31.063Z,62.16
2022-08-22T03:28:12.167Z,62.44
2022-08-22T03:31:01.407Z,62.54
2022-08-22T03:33:31.092Z,62.02
2022-08-22T03:36:13.997Z,62.09
2022-08-22T03:38:52.745Z,61.57
2022-08-22T03:41:29.430Z,61.48
2022-08-22T03:44:39.145Z,62.10
2022-08-22T03:47:28.923Z,62.98
2022-08-22T03:50:22.252Z,63.02
2022-08-22T03:53:15.452Z,62.38
2022-08-22T03:56:08.785Z,62.03
2022-08-22T03:58:39.625Z,61.91
2022-08-22T04:01:31.569Z,61.99
2022-08-22T04:04:15.997Z,61.68
2022-08-22T04:06:48.320Z,61.97
2022-08-22T04:10:00.532Z,61.77
2022-08-22T04:12:53.512Z,61.93
2022-08-22T04:15:27.256Z,62.14
2022-08-22T04:18:24.521Z,62.04
2022-08-22T04:21:06.160Z,61.74
2022-08-22T04:23:49.919Z,61.87
2022-08-22T04:26:22.886Z,62.10
2022-08-22T04:28:54.040Z,61.94
2022-08-22T04:31:27.849Z,62.02
2022-08-22T04:34:07.167Z,61.79
2022-08-22T04:36:43.916Z,61.88
2022-08-22T04:39:30.157Z,62.35
2022-08-22T04:42:36.685Z,62.83
2022-08-22T04:45:17.109Z,62.08
2022-08-22T04:48:15.901Z,61.83
2022-08-22T04:50:57.836Z,61.59
2022-08-22T04:53:56.256Z,62.05
2022-08-22T04:56:43.338Z,62.17
2022-08-22T04:59:16.461Z,61.56
2022-08-22T05:02:06.396Z,62.40
2022-08-22T05:04:50.831Z,62.89
2022-08-22T05:07:22.998Z,62.83
2022-08-22T05:09:54.417Z,62.53
2022-08-22T05:12:34.454Z,62.25
2022-08-22T05:15:23.166Z,62.33
2022-08-22T05:17:53.808Z,62.38
2022-08-22T05:20:24.572Z,62.12
2022-08-22T05:22:57.553Z,62.19
2022-08-22T05:25:31.091Z,62.52
2022-08-22T05:28:12.411Z,63.06
2022-08-22T05:30:41.042Z,62.41
2022-08-22T05:33:20.460Z,62.73
2022-08-22T05:35:57.925Z,63.65
2022-08-22T05:38:31.461Z,63.01
2022-08-22T05:41:10.637Z,62.79
2022-08-22T05:43:41.841Z,63.06
2022-08-22T05:46:36.700Z,63.44
2022-08-22T05:49:06.153Z,62.58
2022-08-22T05:51:48.297Z,63.43
2022-08-22T05:54:20.299Z,63.59
2022-08-22T05:56:54.146Z,64.04
2022-08-22T05:59:30.284Z,63.36
2022-08-22T06:02:07.968Z,62.91
2022-08-22T06:04:46.529Z,62.94
2022-08-22T06:07:21.995Z,63.06
2022-08-22T06:10:19.992Z,62.83
2022-08-22T06:13:04.579Z,63.21
2022-08-22T06:15:48.174Z,63.15
2022-08-22T06:18:24.202Z,62.82
2022-08-22T06:21:02.016Z,62.21
2022-08-22T06:24:05.257Z,62.84
2022-08-22T06:26:38.157Z,62.85
2022-08-22T06:29:07.414Z,63.03
2022-08-22T06:31:45.247Z,62.91
2022-08-22T06:34:15.941Z,63.00
2022-08-22T06:36:47.725Z,62.75
2022-08-22T06:39:32.242Z,62.98
2022-08-22T06:42:14.517Z,62.45
2022-08-22T06:45:11.574Z,62.74
2022-08-22T06:47:43.480Z,62.92
2022-08-22T06:50:36.224Z,62.12
2022-08-22T06:53:09.863Z,62.11
2022-08-22T06:55:39.594Z,62.66
2022-08-22T06:58:17.710Z,62.74
2022-08-22T07:01:05.679Z,62.51
2022-08-22T07:03:41.268Z,62.07
2022-08-22T07:06:14.223Z,61.94
2022-08-22T07:08:42.330Z,61.87
2022-08-22T07:11:21.817Z,61.47
2022-08-22T07:14:17.051Z,61.21
2022-08-22T07:17:00.801Z,60.83
2022-08-22T07:19:30.446Z,60.76
2022-08-22T07:21:59.635Z,60.98
2022-08-22T07:24:31.929Z,60.58
2022-08-22T07:27:23.961Z,60.47
2022-08-22T07:30:13.945Z,60.77
2022-08-22T07:32:50.739Z,59.91
2022-08-22T07:35:26.748Z,61.62
2022-08-22T07:38:07.915Z,62.79
2022-08-22T07:40:59.740Z,63.02
2022-08-22T07:43:35.446Z,61.64
2022-08-22T07:46:24.729Z,61.22
2022-08-22T07:49:09.165Z,61.03
2022-08-22T07:51:49.770Z,61.18
2022-08-22T07:54:27.193Z,63.00
2022-08-22T07:57:03.680Z,61.82
2022-08-22T07:59:34.457Z,60.97
2022-08-22T08:02:06.186Z,61.31
2022-08-22T08:04:39.994Z,61.95
2022-08-22T08:07:10.746Z,61.86
2022-08-22T08:09:44.674Z,61.71
2022-08-22T08:12:12.976Z,61.18
2022-08-22T08:14:42.590Z,60.03
2022-08-22T08:17:17.575Z,60.55
2022-08-22T08:19:47.304Z,62.80
2022-08-22T08:22:21.306Z,61.39
2022-08-22T08:24:50.177Z,61.75
2022-08-22T08:27:40.211Z,61.45
2022-08-22T08:30:15.467Z,60.15
2022-08-22T08:32:47.786Z,59.50
2022-08-22T08:35:31.669Z,58.72
2022-08-22T08:38:16.778Z,59.15
2022-08-22T08:41:10.917Z,59.34
2022-08-22T08:43:40.914Z,59.68
2022-08-22T08:46:55.784Z,59.27
2022-08-22T08:49:33.655Z,58.81
2022-08-22T08:52:25.773Z,59.15
2022-08-22T08:55:22.550Z,60.76
2022-08-22T08:58:24.124Z,60.16
2022-08-22T09:01:00.278Z,59.67
2022-08-22T09:04:15.184Z,60.01
2022-08-22T09:07:10.788Z,60.70
2022-08-22T09:09:52.273Z,61.13
2022-08-22T09:12:36.977Z,60.20
2022-08-22T09:15:44.875Z,59.47
2022-08-22T09:18:33.839Z,60.58
2022-08-22T09:21:43.709Z,62.12
2022-08-22T09:24:37.414Z,60.50
2022-08-22T09:27:24.405Z,61.03
2022-08-22T09:30:04.705Z,60.10
2022-08-22T09:33:09.999Z,60.74
2022-08-22T09:36:16.179Z,60.12
2022-08-22T09:38:55.976Z,60.66
2022-08-22T09:41:37.824Z,58.93
2022-08-22T09:44:16.338Z,58.94
2022-08-22T09:47:24.496Z,61.06
2022-08-22T09:50:14.748Z,59.36
2022-08-22T09:53:10.203Z,59.08
2022-08-22T09:55:54.860Z,58.22
2022-08-22T09:58:46.368Z,58.76
2022-08-22T10:01:35.791Z,58.13
2022-08-22T10:04:42.477Z,58.70
2022-08-22T10:07:33.551Z,59.25
2022-08-22T10:10:26.550Z,59.75
2022-08-22T10:13:01.277Z,61.91
2022-08-22T10:15:51.110Z,61.62
2022-08-22T10:18:43.984Z,61.68
2022-08-22T10:22:02.503Z,62.13
2022-08-22T10:24:51.963Z,62.12
2022-08-22T10:27:32.623Z,61.96
2022-08-22T10:30:06.353Z,61.53
2022-08-22T10:32:47.136Z,62.15
2022-08-22T10:35:25.720Z,62.15
2022-08-22T10:38:21.409Z,61.53
2022-08-22T10:41:09.947Z,60.53
2022-08-22T10:44:00.610Z,60.72
2022-08-22T10:46:49.258Z,59.97
2022-08-22T10:49:28.220Z,58.51
2022-08-22T10:52:06.513Z,58.26
2022-08-22T10:55:01.743Z,57.67
2022-08-22T10:58:04.735Z,57.46
2022-08-22T11:00:50.193Z,58.88
2022-08-22T11:03:23.483Z,56.26
2022-08-22T11:06:07.029Z,57.37
2022-08-22T11:08:59.603Z,56.51
2022-08-22T11:11:47.808Z,57.82
2022-08-22T11:14:38.022Z,55.45
2022-08-22T11:17:30.907Z,55.17
2022-08-22T11:20:06.881Z,54.97
2022-08-22T11:22:55.527Z,57.46
2022-08-22T11:25:41.538Z,57.32
2022-08-22T11:28:29.554Z,56.51
2022-08-22T11:31:07.555Z,58.37
2022-08-22T11:33:53.138Z,58.86
2022-08-22T11:36:20.502Z,57.19
2022-08-22T11:39:03.364Z,56.72
2022-08-22T11:41:52.245Z,55.04
2022-08-22T11:44:25.490Z,57.87
2022-08-22T11:46:53.344Z,55.76
2022-08-22T11:49:27.342Z,55.14
2022-08-22T11:51:55.499Z,55.43
2022-08-22T11:54:31.155Z,56.13
2022-08-22T11:57:08.937Z,56.06
2022-08-22T11:59:43.231Z,54.88
2022-08-22T12:02:14.142Z,55.36
2022-08-22T12:04:44.011Z,54.34
2022-08-22T12:07:18.592Z,52.94
2022-08-22T12:09:50.745Z,54.62
2022-08-22T12:12:18.909Z,52.95
2022-08-22T12:15:04.541Z,51.91
2022-08-22T12:17:55.503Z,51.52
2022-08-22T12:20:32.977Z,52.43
2022-08-22T12:23:19.032Z,54.42
2022-08-22T12:26:05.971Z,54.07
2022-08-22T12:28:56.880Z,53.76
2022-08-22T12:31:24.402Z,54.20
2022-08-22T12:34:18.204Z,53.63
2022-08-22T12:36:57.902Z,51.83
2022-08-22T12:39:41.233Z,52.66
2022-08-22T12:42:14.684Z,52.80
2022-08-22T12:44:47.435Z,51.76
2022-08-22T12:47:18.020Z,51.42
2022-08-22T12:49:57.653Z,53.52
2022-08-22T12:52:44.314Z,52.75
2022-08-22T12:55:17.613Z,54.94
2022-08-22T12:57:54.058Z,56.43
2022-08-22T13:00:26.776Z,59.58
2022-08-22T13:02:54.708Z,62.70
2022-08-22T13:05:23.749Z,61.85
2022-08-22T13:07:55.293Z,60.03
2022-08-22T13:10:33.468Z,59.52
2022-08-22T13:13:01.168Z,59.93
2022-08-22T13:15:45.286Z,59.63
2022-08-22T13:18:30.050Z,59.27
2022-08-22T13:20:59.067Z,58.90
2022-08-22T13:23:27.920Z,59.44
2022-08-22T13:26:01.283Z,61.32
2022-08-22T13:28:29.322Z,63.45
2022-08-22T13:30:57.345Z,64.32
2022-08-22T13:33:31.675Z,64.10
2022-08-22T13:36:01.268Z,65.50
2022-08-22T13:38:28.892Z,64.31
2022-08-22T13:40:56.832Z,64.14
2022-08-22T13:43:26.436Z,61.59
2022-08-22T13:45:55.995Z,59.57
2022-08-22T13:48:28.498Z,58.66
2022-08-22T13:51:04.931Z,57.26
2022-08-22T13:53:49.876Z,59.02
2022-08-22T13:56:30.452Z,57.84
2022-08-22T13:58:58.625Z,56.78
2022-08-22T14:01:28.854Z,55.14
2022-08-22T14:03:59.438Z,54.50
2022-08-22T14:06:35.321Z,54.09
2022-08-22T14:09:12.001Z,54.61
2022-08-22T14:11:51.690Z,54.61
2022-08-22T14:14:23.619Z,54.31
2022-08-22T14:16:54.197Z,55.22
2022-08-22T14:19:53.134Z,54.88
2022-08-22T14:22:32.028Z,54.96
2022-08-22T14:25:07.248Z,54.55
2022-08-22T14:27:34.775Z,54.88
2022-08-22T14:30:05.528Z,54.83
2022-08-22T14:32:43.176Z,56.60
2022-08-22T14:35:21.673Z,55.25
2022-08-22T14:38:17.123Z,55.94
2022-08-22T14:40:45.090Z,58.00
2022-08-22T14:43:33.609Z,58.33
2022-08-22T14:46:06.329Z,58.25
2022-08-22T14:48:39.357Z,58.84
2022-08-22T14:51:13.100Z,58.01
2022-08-22T14:53:40.646Z,56.95
2022-08-22T14:56:08.740Z,56.98
2022-08-22T14:58:49.481Z,57.21
2022-08-22T15:01:18.805Z,58.18
2022-08-22T15:04:21.387Z,59.22
2022-08-22T15:06:59.321Z,58.84
2022-08-22T15:09:34.320Z,57.83
2022-08-22T15:12:04.044Z,57.42
2022-08-22T15:14:35.333Z,57.21
2022-08-22T15:17:08.684Z,58.52
2022-08-22T15:19:41.057Z,56.69
2022-08-22T15:22:11.346Z,57.79
2022-08-22T15:24:46.989Z,56.67
2022-08-22T15:27:17.254Z,57.61
2022-08-22T15:29:49.545Z,57.14
2022-08-22T15:32:20.295Z,56.64
2022-08-22T15:34:52.397Z,57.96
2022-08-22T15:37:20.150Z,57.99
2022-08-22T15:40:07.468Z,58.52
2022-08-22T15:42:44.572Z,59.37
2022-08-22T15:45:41.348Z,59.22
2022-08-22T15:48:10.738Z,60.14
2022-08-22T15:50:39.490Z,60.36
2022-08-22T15:53:19.739Z,59.90
2022-08-22T15:56:05.504Z,59.21
2022-08-22T15:58:37.178Z,59.29
2022-08-22T16:01:14.190Z,59.38
2022-08-22T16:03:53.583Z,59.05
2022-08-22T16:06:42.541Z,59.09
2022-08-22T16:09:26.425Z,59.34
2022-08-22T16:11:53.835Z,61.07
2022-08-22T16:14:22.726Z,60.26
2022-08-22T16:16:50.027Z,62.92
2022-08-22T16:19:21.992Z,62.36
2022-08-22T16:21:53.461Z,61.84
2022-08-22T16:24:21.733Z,60.65
2022-08-22T16:26:49.013Z,59.11
2022-08-22T16:29:29.289Z,60.12
2022-08-22T16:32:01.454Z,60.18
2022-08-22T16:34:40.431Z,59.87
2022-08-22T16:37:21.623Z,60.85
2022-08-22T16:39:58.594Z,61.62
2022-08-22T16:42:27.369Z,59.55
2022-08-22T16:45:05.430Z,59.55
2022-08-22T16:47:36.332Z,59.10
2022-08-22T16:50:18.421Z,59.34
2022-08-22T16:52:52.468Z,59.65
2022-08-22T16:55:29.338Z,59.89
2022-08-22T16:58:06.484Z,61.37
2022-08-22T17:00:43.383Z,59.12
2022-08-22T17:03:22.668Z,61.08
2022-08-22T17:06:08.933Z,59.41
2022-08-22T17:08:39.090Z,60.16
2022-08-22T17:11:12.464Z,59.62
2022-08-22T17:13:51.715Z,59.71
2022-08-22T17:16:25.394Z,61.64
2022-08-22T17:19:09.236Z,60.44
2022-08-22T17:21:50.621Z,59.62
2022-08-22T17:24:32.240Z,61.42
2022-08-22T17:27:23.650Z,61.89
2022-08-22T17:29:52.072Z,61.13
2022-08-22T17:32:26.273Z,63.14
2022-08-22T17:34:59.428Z,61.04
2022-08-22T17:37:39.525Z,60.77
2022-08-22T17:40:07.074Z,61.91
2022-08-22T17:42:47.936Z,62.52
2022-08-22T17:45:33.936Z,63.01
2022-08-22T17:48:01.688Z,62.00
2022-08-22T17:50:35.157Z,61.85
2022-08-22T17:53:07.828Z,63.46
2022-08-22T17:55:53.891Z,62.25
2022-08-22T17:58:37.860Z,63.76
2022-08-22T18:01:16.014Z,63.71
2022-08-22T18:03:46.416Z,62.74
2022-08-22T18:06:31.134Z,61.95
2022-08-22T18:09:14.888Z,62.45
2022-08-22T18:12:02.433Z,60.86
2022-08-22T18:14:32.146Z,61.52
2022-08-22T18:17:00.877Z,62.69
2022-08-22T18:19:41.156Z,62.06
2022-08-22T18:22:11.097Z,61.89
2022-08-22T18:24:56.508Z,61.66
2022-08-22T18:27:34.138Z,62.53
2022-08-22T18:30:08.171Z,61.27
2022-08-22T18:32:35.769Z,62.72
2022-08-22T18:35:07.901Z,62.26
2022-08-22T18:37:38.231Z,61.50
2022-08-22T18:40:07.220Z,62.44
2022-08-22T18:42:49.910Z,62.65
2022-08-22T18:45:44.494Z,65.75
2022-08-22T18:48:20.056Z,64.65
2022-08-22T18:50:47.874Z,64.15
2022-08-22T18:53:47.769Z,62.93
2022-08-22T18:56:21.861Z,61.47
2022-08-22T18:59:05.873Z,61.38
2022-08-22T19:01:42.323Z,62.88
2022-08-22T19:04:24.667Z,62.98
2022-08-22T19:06:52.915Z,61.97
2022-08-22T19:09:32.156Z,61.46
2022-08-22T19:12:02.994Z,61.03
2022-08-22T19:14:49.123Z,60.72
2022-08-22T19:17:36.610Z,60.23
2022-08-22T19:20:25.913Z,61.00
2022-08-22T19:23:16.602Z,60.75
2022-08-22T19:26:02.923Z,60.66
2022-08-22T19:28:35.922Z,59.38
2022-08-22T19:31:22.506Z,60.50
2022-08-22T19:33:51.246Z,64.04
2022-08-22T19:36:29.947Z,61.86
2022-08-22T19:39:00.651Z,60.95
2022-08-22T19:41:50.835Z,62.39
2022-08-22T19:44:19.034Z,62.04
2022-08-22T19:46:47.786Z,63.26
2022-08-22T19:49:21.561Z,62.71
2022-08-22T19:51:58.810Z,62.05
2022-08-22T19:54:26.271Z,63.28
2022-08-22T19:57:03.146Z,64.78
2022-08-22T19:59:37.941Z,62.81
2022-08-22T20:02:09.163Z,63.35
2022-08-22T20:04:42.405Z,62.13
2022-08-22T20:07:25.007Z,63.76
2022-08-22T20:09:56.518Z,61.67
2022-08-22T20:12:29.839Z,61.85
2022-08-22T20:14:57.440Z,61.61
2022-08-22T20:17:24.713Z,61.73
2022-08-22T20:22:56.746Z,61.60
2022-08-22T20:25:42.085Z,62.06
2022-08-22T20:28:23.548Z,61.86
2022-08-22T20:30:50.874Z,61.50
2022-08-22T20:33:26.048Z,62.13
2022-08-22T20:35:55.730Z,61.53
2022-08-22T20:38:24.504Z,61.57
2022-08-22T20:41:14.354Z,60.53
2022-08-22T20:43:51.499Z,60.92
2022-08-22T20:46:38.193Z,60.84
2022-08-22T20:49:13.567Z,60.56
2022-08-22T20:52:10.948Z,59.90
2022-08-22T20:54:40.914Z,60.21
2022-08-22T20:57:18.619Z,59.43
2022-08-22T20:59:53.853Z,59.48
2022-08-22T21:02:23.852Z,60.83
2022-08-22T21:04:53.102Z,62.22
2022-08-22T21:07:24.186Z,62.76
2022-08-22T21:10:22.321Z,61.35
2022-08-22T21:13:09.159Z,61.05
2022-08-22T21:15:41.446Z,62.00
2022-08-22T21:18:09.498Z,61.86
2022-08-22T21:20:38.105Z,62.97
2022-08-22T21:23:19.729Z,61.86
2022-08-22T21:25:49.303Z,62.16
2022-08-22T21:28:26.939Z,61.81
2022-08-22T21:30:54.464Z,62.61
2022-08-22T21:33:24.665Z,62.60
2022-08-22T21:35:56.095Z,62.09
2022-08-22T21:38:23.920Z,61.83
2022-08-22T21:40:51.446Z,63.72
2022-08-22T21:43:29.832Z,63.08
2022-08-22T21:45:57.368Z,63.19
2022-08-22T21:48:33.427Z,62.72
2022-08-22T21:51:19.437Z,63.58
2022-08-22T21:53:46.748Z,62.17
2022-08-22T21:56:15.618Z,63.25
2022-08-22T21:58:43.039Z,63.63
2022-08-22T22:01:24.947Z,62.65
2022-08-22T22:03:54.959Z,62.42
2022-08-22T22:06:22.266Z,62.26
2022-08-22T22:08:49.638Z,62.24
2022-08-22T22:11:17.217Z,61.96
2022-08-22T22:13:44.544Z,61.59
2022-08-22T22:16:12.392Z,61.06
2022-08-22T22:18:40.677Z,61.38
2022-08-22T22:21:08.084Z,62.60
2022-08-22T22:23:35.336Z,63.42
2022-08-22T22:26:04.038Z,61.83
2022-08-22T22:28:33.081Z,61.38
2022-08-22T22:31:00.401Z,62.25
2022-08-22T22:33:29.291Z,61.18
2022-08-22T22:35:57.576Z,60.64
2022-08-22T22:38:24.838Z,60.29
2022-08-22T22:40:52.643Z,62.42
2022-08-22T22:43:20.026Z,61.59
2022-08-22T22:45:47.244Z,60.81
2022-08-22T22:48:17.535Z,62.42
2022-08-22T22:50:52.457Z,61.28
2022-08-22T22:53:21.516Z,61.33
2022-08-22T22:56:01.124Z,60.29
2022-08-22T22:58:29.040Z,60.33
2022-08-22T23:00:57.689Z,59.92
2022-08-22T23:03:26.814Z,60.35
2022-08-22T23:05:54.315Z,60.25
2022-08-22T23:08:21.598Z,60.01
2022-08-22T23:10:48.911Z,60.32
2022-08-22T23:13:16.418Z,59.68
2022-08-22T23:15:43.713Z,59.73
2022-08-22T23:18:10.912Z,59.84
2022-08-22T23:20:38.431Z,59.20
2022-08-22T23:23:05.900Z,61.24
2022-08-22T23:25:33.149Z,61.01
2022-08-22T23:28:00.787Z,61.22
2022-08-22T23:30:28.255Z,59.51
2022-08-22T23:32:56.129Z,60.03
2022-08-22T23:35:23.736Z,59.41
2022-08-22T23:37:51.093Z,60.12
2022-08-22T23:40:18.505Z,59.68
2022-08-22T23:42:46.115Z,59.27
2022-08-22T23:45:13.457Z,59.20
2022-08-22T23:47:40.673Z,59.40
2022-08-22T23:50:08.481Z,59.24
2022-08-22T23:52:35.708Z,59.24
2022-08-22T23:55:03.090Z,59.35
2022-08-22T23:57:30.697Z,58.74
2022-08-22T23:59:58.690Z,60.18
